createdAt,value
2019-04-10T00:00:48.104Z,13.10
2019-04-10T00:02:53.581Z,13.43
2019-04-10T00:04:59.191Z,13.93
2019-04-10T00:07:13.815Z,12.17
2019-04-10T00:09:12.881Z,13.40
2019-04-10T00:11:18.604Z,12.30
2019-04-10T00:13:24.693Z,12.20
2019-04-10T00:15:30.644Z,12.37
2019-04-10T00:17:35.624Z,11.63
2019-04-10T00:19:40.713Z,12.37
2019-04-10T00:21:45.973Z,12.37
2019-04-10T00:23:51.514Z,12.37
2019-04-10T00:25:57.285Z,12.07
2019-04-10T00:28:03.259Z,12.70
2019-04-10T00:30:09.232Z,12.67
2019-04-10T00:32:14.258Z,12.53
2019-04-10T00:34:21.136Z,11.50
2019-04-10T00:36:26.891Z,12.43
2019-04-10T00:38:32.003Z,11.90
2019-04-10T00:40:36.898Z,12.23
2019-04-10T00:42:43.272Z,12.57
2019-04-10T00:44:48.611Z,12.07
2019-04-10T00:46:54.747Z,12.30
2019-04-10T00:49:00.630Z,12.17
2019-04-10T00:51:06.691Z,12.33
2019-04-10T00:53:12.841Z,11.80
2019-04-10T00:55:18.057Z,12.47
2019-04-10T00:57:23.688Z,11.97
2019-04-10T00:59:30.298Z,12.20
2019-04-10T01:01:38.760Z,12.77
2019-04-10T01:03:48.574Z,12.23
2019-04-10T03:36:03.298Z,10.70
2019-04-10T03:38:09.779Z,10.77
2019-04-10T03:40:15.450Z,10.57
2019-04-10T03:42:21.256Z,10.43
2019-04-10T03:44:27.095Z,11.20
2019-04-10T03:46:33.240Z,11.30
2019-04-10T03:48:39.000Z,10.43
2019-04-10T03:50:45.423Z,10.77
2019-04-10T03:52:51.692Z,11.37
2019-04-10T03:54:58.609Z,10.70
2019-04-10T03:57:04.585Z,10.30
2019-04-10T03:59:11.683Z,10.43
2019-04-10T04:01:17.220Z,11.13
2019-04-10T04:03:22.644Z,11.20
2019-04-10T04:05:28.835Z,10.83
2019-04-10T04:07:34.761Z,10.27
2019-04-10T04:09:39.939Z,10.73
2019-04-10T04:11:46.089Z,10.47
2019-04-10T04:13:52.134Z,10.97
2019-04-10T04:15:58.134Z,10.77
2019-04-10T04:18:04.521Z,11.00
2019-04-10T04:20:10.798Z,10.33
2019-04-10T04:22:16.696Z,10.57
2019-04-10T04:24:25.501Z,10.40
2019-04-10T04:26:31.817Z,10.73
2019-04-10T04:28:36.979Z,10.40
2019-04-10T04:30:42.392Z,11.17
2019-04-10T04:32:48.383Z,10.53
2019-04-10T04:34:54.253Z,9.97
2019-04-10T04:37:00.371Z,11.03
2019-04-10T04:39:18.094Z,11.10
2019-04-10T04:41:15.373Z,10.90
2019-04-10T04:43:21.677Z,11.03
2019-04-10T04:45:27.848Z,10.90
2019-04-10T04:47:33.551Z,11.30
2019-04-10T04:49:39.811Z,9.47
2019-04-10T04:51:45.707Z,10.93
2019-04-10T04:53:51.208Z,10.47
2019-04-10T04:55:57.569Z,10.97
2019-04-10T04:58:04.030Z,10.27
2019-04-10T05:00:09.594Z,10.67
2019-04-10T05:02:14.904Z,10.07
2019-04-10T05:04:20.610Z,10.97
2019-04-10T05:06:26.643Z,10.60
2019-04-10T05:08:32.573Z,10.33
2019-04-10T05:10:37.864Z,10.40
2019-04-10T05:12:43.630Z,10.53
2019-04-10T05:14:49.700Z,11.07
2019-04-10T05:16:55.449Z,11.63
2019-04-10T05:19:01.723Z,10.77
2019-04-10T05:21:06.813Z,10.03
2019-04-10T05:23:11.841Z,10.00
2019-04-10T05:25:17.083Z,11.20
2019-04-10T05:27:24.672Z,11.00
2019-04-10T05:29:31.105Z,10.30
2019-04-10T05:31:37.044Z,10.43
2019-04-10T05:33:43.154Z,9.87
2019-04-10T05:35:48.876Z,10.70
2019-04-10T05:37:54.167Z,10.83
2019-04-10T05:39:59.421Z,10.93
2019-04-10T05:42:04.864Z,10.37
2019-04-10T05:44:09.908Z,10.90
2019-04-10T05:46:16.452Z,10.87
2019-04-10T05:48:23.583Z,11.07
2019-04-10T05:50:29.912Z,11.00
2019-04-10T05:52:37.386Z,10.83
2019-04-10T05:54:43.786Z,10.30
2019-04-10T05:56:49.025Z,11.57
2019-04-10T05:58:54.641Z,10.90
2019-04-10T06:01:01.783Z,10.93
2019-04-10T06:03:06.857Z,10.93
2019-04-10T06:05:12.076Z,11.50
2019-04-10T06:07:17.455Z,11.20
2019-04-10T06:09:23.308Z,11.40
2019-04-10T06:11:29.196Z,11.17
2019-04-10T06:13:35.278Z,11.37
2019-04-10T06:15:41.284Z,10.67
2019-04-10T06:17:46.951Z,11.20
2019-04-10T06:19:53.116Z,11.23
2019-04-10T06:21:58.613Z,10.37
2019-04-10T06:24:03.906Z,10.27
2019-04-10T06:26:10.201Z,11.07
2019-04-10T06:28:16.964Z,11.13
2019-04-10T06:30:22.405Z,10.07
2019-04-10T06:32:27.638Z,10.70
2019-04-10T06:34:34.179Z,10.80
2019-04-10T06:36:39.701Z,10.87
2019-04-10T06:38:45.777Z,10.33
2019-04-10T06:40:50.786Z,10.90
2019-04-10T06:42:57.617Z,10.87
2019-04-10T06:45:05.493Z,10.10
2019-04-10T06:47:09.931Z,9.70
2019-04-10T06:49:16.468Z,10.47
2019-04-10T06:51:21.827Z,10.10
2019-04-10T06:53:27.054Z,11.37
2019-04-10T06:55:32.314Z,11.33
2019-04-10T06:57:46.911Z,10.47
2019-04-10T06:59:44.510Z,10.47
2019-04-10T07:01:53.364Z,10.47
2019-04-10T07:04:02.749Z,10.23
2019-04-10T07:06:13.416Z,10.03
2019-04-10T07:08:16.433Z,10.77
2019-04-10T07:10:26.112Z,11.10
2019-04-10T07:12:29.773Z,10.03
2019-04-10T07:14:35.106Z,10.17
2019-04-10T07:16:40.224Z,10.13
2019-04-10T07:18:49.029Z,10.10
2019-04-10T07:20:56.342Z,9.77
2019-04-10T07:25:02.944Z,10.10
2019-04-10T07:27:09.769Z,10.23
2019-04-10T07:29:17.946Z,10.47
2019-04-10T07:31:23.480Z,10.40
2019-04-10T07:33:29.075Z,10.13
2019-04-10T07:35:35.764Z,10.07
2019-04-10T07:37:42.518Z,10.43
2019-04-10T07:39:48.851Z,9.63
2019-04-10T07:41:54.042Z,10.43
2019-04-10T07:43:59.188Z,10.37
2019-04-10T07:46:04.955Z,9.83
2019-04-10T07:48:10.765Z,10.30
2019-04-10T07:50:16.488Z,9.23
2019-04-10T07:52:23.036Z,9.53
2019-04-10T07:54:29.052Z,9.77
2019-04-10T07:56:35.359Z,10.17
2019-04-10T07:58:40.365Z,10.23
2019-04-10T08:00:46.906Z,10.23
2019-04-10T08:02:53.203Z,10.30
2019-04-10T08:04:58.342Z,9.70
2019-04-10T08:07:03.444Z,10.50
2019-04-10T08:09:10.450Z,9.50
2019-04-10T08:11:15.598Z,9.20
2019-04-10T08:13:20.769Z,9.53
2019-04-10T08:15:27.266Z,9.27
2019-04-10T08:17:32.910Z,9.93
2019-04-10T08:19:39.089Z,9.57
2019-04-10T08:21:44.510Z,9.97
2019-04-10T08:23:51.464Z,9.10
2019-04-10T08:25:56.642Z,9.07
2019-04-10T08:28:02.762Z,8.33
2019-04-10T08:30:10.931Z,9.57
2019-04-10T08:32:16.079Z,9.33
2019-04-10T08:34:21.693Z,9.03
2019-04-10T08:36:27.616Z,9.73
2019-04-10T08:38:32.715Z,9.87
2019-04-10T08:40:38.321Z,9.00
2019-04-10T08:42:46.019Z,8.93
2019-04-10T08:44:50.631Z,9.13
2019-04-10T08:46:55.787Z,8.87
2019-04-10T08:49:01.246Z,9.60
2019-04-10T08:51:06.726Z,8.67
2019-04-10T08:53:11.838Z,8.40
2019-04-10T08:55:17.762Z,9.10
2019-04-10T08:57:23.016Z,9.53
2019-04-10T08:59:29.921Z,8.93
2019-04-10T09:01:36.080Z,9.30
2019-04-10T09:03:41.333Z,9.63
2019-04-10T09:05:47.083Z,8.87
2019-04-10T09:07:52.787Z,9.50
2019-04-10T09:09:58.331Z,9.00
2019-04-10T09:12:03.496Z,9.23
2019-04-10T09:14:08.761Z,8.60
2019-04-10T09:16:14.133Z,9.03
2019-04-10T09:18:19.671Z,9.30
2019-04-10T09:20:24.860Z,8.40
2019-04-10T09:22:47.974Z,9.40
2019-04-10T09:24:38.684Z,9.07
2019-04-10T09:26:44.587Z,8.63
2019-04-10T09:28:50.781Z,8.97
2019-04-10T09:30:55.912Z,9.47
2019-04-10T09:33:05.555Z,9.80
2019-04-10T09:35:09.178Z,9.67
2019-04-10T09:37:15.641Z,9.13
2019-04-10T09:39:20.794Z,8.77
2019-04-10T09:41:26.248Z,9.43
2019-04-10T09:43:31.753Z,9.90
2019-04-10T09:45:37.247Z,9.13
2019-04-10T09:47:43.760Z,8.90
2019-04-10T09:49:49.351Z,10.27
2019-04-10T09:51:55.086Z,9.70
2019-04-10T09:54:01.286Z,9.07
2019-04-10T09:56:07.357Z,9.50
2019-04-10T09:58:13.258Z,9.50
2019-04-10T10:00:21.135Z,9.23
2019-04-10T10:02:27.473Z,8.87
2019-04-10T10:04:33.328Z,10.20
2019-04-10T10:06:39.648Z,9.73
2019-04-10T10:08:45.318Z,9.47
2019-04-10T10:10:50.397Z,9.40
2019-04-10T10:12:56.915Z,10.83
2019-04-10T10:15:02.757Z,9.83
2019-04-10T10:17:08.611Z,9.83
2019-04-10T10:19:14.196Z,10.17
2019-04-10T10:21:20.635Z,9.57
2019-04-10T10:23:26.076Z,10.53
2019-04-10T10:25:31.271Z,9.47
2019-04-10T10:27:36.518Z,10.07
2019-04-10T10:29:41.919Z,10.37
2019-04-10T10:31:49.730Z,10.23
2019-04-10T10:33:55.134Z,10.20
2019-04-10T10:36:01.159Z,10.30
2019-04-10T10:38:07.598Z,10.20
2019-04-10T10:40:15.129Z,10.23
2019-04-10T10:42:21.248Z,10.40
2019-04-10T10:44:27.015Z,9.77
2019-04-10T10:46:32.034Z,9.87
2019-04-10T10:48:38.022Z,9.97
2019-04-10T10:50:45.675Z,10.10
2019-04-10T10:52:52.135Z,10.10
2019-04-10T10:54:58.978Z,9.97
2019-04-10T10:57:04.471Z,9.77
2019-04-10T10:59:09.694Z,10.10
2019-04-10T11:01:15.772Z,10.00
2019-04-10T11:03:20.856Z,10.33
2019-04-10T11:05:25.971Z,10.43
2019-04-10T11:07:31.293Z,10.97
2019-04-10T11:09:37.050Z,10.50
2019-04-10T11:11:42.228Z,10.60
2019-04-10T11:13:48.514Z,10.47
2019-04-10T11:15:53.986Z,10.10
2019-04-10T11:18:00.237Z,10.33
2019-04-10T11:20:08.075Z,10.20
2019-04-10T11:22:14.860Z,10.43
2019-04-10T11:24:20.647Z,10.77
2019-04-10T11:26:27.511Z,9.97
2019-04-10T11:28:33.923Z,11.10
2019-04-10T11:30:41.047Z,9.87
2019-04-10T11:32:46.559Z,9.60
2019-04-10T11:34:52.860Z,9.63
2019-04-10T11:37:16.904Z,9.70
2019-04-10T11:39:16.827Z,10.73
2019-04-10T11:41:18.070Z,9.77
2019-04-10T11:43:24.882Z,9.07
2019-04-10T11:45:40.694Z,9.73
2019-04-10T11:47:38.803Z,9.73
2019-04-10T11:49:45.158Z,10.10
2019-04-10T11:51:52.977Z,9.57
2019-04-10T11:53:59.222Z,9.60
2019-04-10T11:56:05.687Z,10.00
2019-04-10T11:58:15.570Z,9.70
2019-04-10T12:00:26.771Z,9.20
2019-04-10T12:02:33.681Z,9.27
2019-04-10T12:04:47.957Z,9.23
2019-04-10T12:06:49.191Z,9.27
2019-04-10T12:13:05.966Z,9.57
2019-04-10T12:15:12.314Z,9.00
2019-04-10T12:17:17.999Z,9.70
2019-04-10T12:19:25.032Z,11.17
2019-04-10T12:21:31.620Z,9.33
2019-04-10T12:23:36.927Z,9.43
2019-04-10T12:25:42.993Z,9.40
2019-04-10T12:27:49.425Z,9.80
2019-04-10T12:29:55.103Z,9.00
2019-04-10T12:32:00.830Z,8.80
2019-04-10T12:34:06.727Z,9.90
2019-04-10T12:36:12.240Z,8.77
2019-04-10T12:38:17.372Z,8.80
2019-04-10T12:40:23.852Z,8.27
2019-04-10T12:42:30.297Z,9.07
2019-04-10T12:44:36.005Z,9.23
2019-04-10T12:46:41.597Z,9.17
2019-04-10T12:48:47.223Z,8.50
2019-04-10T12:50:53.067Z,9.00
2019-04-10T12:52:58.865Z,8.60
2019-04-10T12:55:04.411Z,8.60
2019-04-10T12:57:10.600Z,8.57
2019-04-10T12:59:16.042Z,9.13
2019-04-10T13:01:22.652Z,8.70
2019-04-10T13:03:27.804Z,8.90
2019-04-10T13:05:34.274Z,9.40
2019-04-10T13:07:40.070Z,8.63
2019-04-10T13:09:46.350Z,8.60
2019-04-10T13:11:51.374Z,8.47
2019-04-10T13:13:56.423Z,9.17
2019-04-10T13:16:01.895Z,8.43
2019-04-10T13:18:07.953Z,7.97
2019-04-10T13:20:15.647Z,8.40
2019-04-10T13:22:20.786Z,8.23
2019-04-10T13:24:26.313Z,8.07
2019-04-10T13:26:32.298Z,7.90
2019-04-10T13:28:37.721Z,7.53
2019-04-10T13:30:50.268Z,8.30
2019-04-10T13:32:50.123Z,7.57
2019-04-10T13:34:55.923Z,7.33
2019-04-10T13:37:04.395Z,7.87
2019-04-10T13:39:13.293Z,8.27
2019-04-10T13:41:18.591Z,8.07
2019-04-10T13:43:23.687Z,7.97
2019-04-10T13:45:29.055Z,7.97
2019-04-10T13:47:34.428Z,8.63
2019-04-10T13:49:40.236Z,8.13
2019-04-10T13:51:46.407Z,8.40
2019-04-10T13:53:52.360Z,8.97
2019-04-10T13:55:57.490Z,8.73
2019-04-10T13:58:03.344Z,9.97
2019-04-10T14:00:11.424Z,9.43
2019-04-10T14:02:25.404Z,9.00
2019-04-10T14:04:31.302Z,9.40
2019-04-10T14:06:36.361Z,9.80
2019-04-10T14:08:59.884Z,10.97
2019-04-10T14:10:48.912Z,9.97
2019-04-10T14:12:56.389Z,9.60
2019-04-10T14:15:01.694Z,11.70
2019-04-10T14:17:07.403Z,10.53
2019-04-10T14:19:15.053Z,9.93
2019-04-10T14:21:20.765Z,9.37
2019-04-10T14:23:31.206Z,9.93
2019-04-10T14:25:53.987Z,8.63
2019-04-10T14:28:00.595Z,9.03
2019-04-10T14:30:11.212Z,9.43
2019-04-10T14:32:36.218Z,9.80
2019-04-10T14:34:41.354Z,9.97
2019-04-10T14:36:46.783Z,9.17
2019-04-10T14:38:52.648Z,8.73
2019-04-10T14:40:57.933Z,8.70
2019-04-10T14:43:03.492Z,9.30
2019-04-10T14:45:10.831Z,8.97
2019-04-10T14:47:17.146Z,8.97
2019-04-10T14:49:23.433Z,9.27
2019-04-10T14:51:28.793Z,8.97
2019-04-10T14:53:35.229Z,9.60
2019-04-10T14:55:41.750Z,8.73
2019-04-10T14:57:47.396Z,9.37
2019-04-10T14:59:53.130Z,8.87
2019-04-10T15:01:59.780Z,9.53
2019-04-10T15:04:05.376Z,8.77
2019-04-10T15:06:11.464Z,9.73
2019-04-10T15:08:17.586Z,9.80
2019-04-10T15:10:23.009Z,10.10
2019-04-10T15:12:28.181Z,10.03
2019-04-10T15:14:33.998Z,9.73
2019-04-10T15:16:39.346Z,8.70
2019-04-10T15:18:45.816Z,8.80
2019-04-10T15:20:51.157Z,8.57
2019-04-10T15:22:56.605Z,8.97
2019-04-10T15:25:02.009Z,8.57
2019-04-10T15:27:07.469Z,8.67
2019-04-10T15:29:12.952Z,8.27
2019-04-10T15:31:19.417Z,9.10
2019-04-10T15:33:24.729Z,8.67
2019-04-10T15:35:30.730Z,7.67
2019-04-10T15:37:35.855Z,8.10
2019-04-10T15:39:42.922Z,8.10
2019-04-10T15:41:47.828Z,7.43
2019-04-10T15:43:53.938Z,7.57
2019-04-10T15:46:00.186Z,8.10
2019-04-10T15:48:05.665Z,8.03
2019-04-10T15:50:13.711Z,8.07
2019-04-10T15:52:19.903Z,7.50
2019-04-10T15:54:25.641Z,8.20
2019-04-10T15:56:31.071Z,7.80
2019-04-10T15:58:36.416Z,7.53
2019-04-10T16:00:43.236Z,7.93
2019-04-10T16:02:49.082Z,7.50
2019-04-10T16:04:55.275Z,8.80
2019-04-10T16:07:01.991Z,8.47
2019-04-10T16:09:09.254Z,7.70
2019-04-10T16:11:50.061Z,8.95
2019-04-10T16:13:56.953Z,7.63
2019-04-10T16:16:21.505Z,8.33
2019-04-10T16:18:28.329Z,7.90
2019-04-10T16:20:34.581Z,7.83
2019-04-10T16:22:43.002Z,8.17
2019-04-10T16:24:48.964Z,8.43
2019-04-10T16:26:55.748Z,8.47
2019-04-10T16:29:02.029Z,7.97
2019-04-10T16:31:07.596Z,8.13
2019-04-10T16:33:14.653Z,8.00
2019-04-10T16:35:20.888Z,7.97
2019-04-10T16:37:26.471Z,8.27
2019-04-10T16:39:32.104Z,9.93
2019-04-10T16:41:37.925Z,8.60
2019-04-10T16:43:43.094Z,8.67
2019-04-10T16:45:48.988Z,9.30
2019-04-10T16:47:54.559Z,10.47
2019-04-10T16:50:01.418Z,14.67
2019-04-10T16:52:07.346Z,12.47
2019-04-10T16:54:12.804Z,11.27
2019-04-10T16:56:18.663Z,8.70
2019-04-10T16:58:23.670Z,8.67
2019-04-10T17:00:29.179Z,8.73
2019-04-10T17:02:34.373Z,8.20
2019-04-10T17:04:40.135Z,7.87
2019-04-10T17:06:46.116Z,7.87
2019-04-10T17:08:52.274Z,8.40
2019-04-10T17:10:58.800Z,7.97
2019-04-10T17:13:07.267Z,8.00
2019-04-10T17:15:13.314Z,7.23
2019-04-10T17:17:18.560Z,7.57
2019-04-10T17:19:23.789Z,7.43
2019-04-10T17:21:30.726Z,7.03
2019-04-10T17:23:36.748Z,7.50
2019-04-10T17:25:44.343Z,7.27
2019-04-10T17:27:50.047Z,7.70
2019-04-10T17:29:56.932Z,7.23
2019-04-10T17:32:04.644Z,6.90
2019-04-10T17:34:10.356Z,6.90
2019-04-10T17:36:15.339Z,7.60
2019-04-10T17:38:20.780Z,6.67
2019-04-10T17:40:33.561Z,6.37
2019-04-10T17:42:33.005Z,7.10
2019-04-10T17:44:38.514Z,6.67
2019-04-10T17:46:43.946Z,6.23
2019-04-10T17:48:49.894Z,6.70
2019-04-10T17:50:55.730Z,8.57
2019-04-10T17:53:01.040Z,7.27
2019-04-10T17:55:07.472Z,7.47
2019-04-10T17:57:12.779Z,7.23
2019-04-10T17:59:18.349Z,6.73
2019-04-10T18:01:24.996Z,6.97
2019-04-10T18:03:43.953Z,7.80
2019-04-10T18:05:37.610Z,7.07
2019-04-10T18:07:43.939Z,7.30
2019-04-10T18:09:50.730Z,7.90
2019-04-10T18:11:59.428Z,9.07
2019-04-10T18:14:04.046Z,7.50
2019-04-10T18:16:10.537Z,8.23
2019-04-10T18:18:15.913Z,7.73
2019-04-10T18:20:22.066Z,8.47
2019-04-10T18:22:27.408Z,7.27
2019-04-10T18:24:32.486Z,7.30
2019-04-10T18:26:37.448Z,7.00
2019-04-10T18:28:43.643Z,7.77
2019-04-10T18:30:49.249Z,7.20
2019-04-10T18:32:54.407Z,6.60
2019-04-10T18:35:00.471Z,6.40
2019-04-10T18:37:08.051Z,6.23
2019-04-10T18:39:15.728Z,6.07
2019-04-10T18:41:22.156Z,6.50
2019-04-10T18:43:28.508Z,6.23
2019-04-10T18:45:35.391Z,6.07
2019-04-10T18:47:41.722Z,5.63
2019-04-10T18:49:47.516Z,6.40
2019-04-10T18:51:54.169Z,6.37
2019-04-10T18:53:59.683Z,6.17
2019-04-10T18:56:05.060Z,6.13
2019-04-10T18:58:15.816Z,6.57
2019-04-10T19:00:42.935Z,6.53
2019-04-10T19:03:05.512Z,6.40
2019-04-10T19:05:17.319Z,7.00
2019-04-10T19:07:23.076Z,7.50
2019-04-10T19:09:32.375Z,7.07
2019-04-10T19:11:38.403Z,7.10
2019-04-10T19:13:43.680Z,6.53
2019-04-10T19:15:50.175Z,7.17
2019-04-10T19:17:55.598Z,6.50
2019-04-10T19:20:01.957Z,6.07
2019-04-10T19:22:08.059Z,5.97
2019-04-10T19:24:14.331Z,6.00
2019-04-10T19:26:23.174Z,5.47
2019-04-10T19:28:35.025Z,6.67
2019-04-10T19:30:45.558Z,6.20
2019-04-10T19:32:51.893Z,5.57
2019-04-10T19:34:57.440Z,5.90
2019-04-10T19:37:03.941Z,6.27
2019-04-10T19:39:09.823Z,5.63
2019-04-10T19:41:26.278Z,5.73
2019-04-10T19:43:22.103Z,5.87
2019-04-10T19:45:28.029Z,6.17
2019-04-10T19:47:32.926Z,6.20
2019-04-10T19:49:38.809Z,6.10
2019-04-10T19:51:44.919Z,6.13
2019-04-10T19:53:51.161Z,5.40
2019-04-10T19:55:56.537Z,6.03
2019-04-10T19:58:01.879Z,6.40
2019-04-10T20:00:08.681Z,6.03
2019-04-10T20:02:14.911Z,7.65
2019-04-10T20:04:20.743Z,6.53
2019-04-10T20:06:25.774Z,6.27
2019-04-10T20:08:31.896Z,6.30
2019-04-10T20:10:37.448Z,6.20
2019-04-10T20:12:42.589Z,6.10
2019-04-10T20:14:48.510Z,6.17
2019-04-10T20:16:53.910Z,5.63
2019-04-10T20:18:59.248Z,5.90
2019-04-10T20:21:05.783Z,6.13
2019-04-10T20:23:12.586Z,5.73
2019-04-10T20:25:18.524Z,5.73
2019-04-10T20:27:23.868Z,5.93
2019-04-10T20:29:29.202Z,5.83
2019-04-10T20:31:35.662Z,5.97
2019-04-10T20:33:41.018Z,6.20
2019-04-10T20:35:46.726Z,6.27
2019-04-10T20:37:51.760Z,5.87
2019-04-10T20:39:57.846Z,5.80
2019-04-10T20:42:03.052Z,5.40
2019-04-10T20:44:09.291Z,6.03
2019-04-10T20:46:14.384Z,5.33
2019-04-10T20:48:20.370Z,5.73
2019-04-10T20:50:26.019Z,5.77
2019-04-10T20:52:31.122Z,4.90
2019-04-10T20:54:37.127Z,5.27
2019-04-10T20:56:43.217Z,5.50
2019-04-10T20:58:48.538Z,6.03
2019-04-10T21:00:54.701Z,6.07
2019-04-10T21:03:00.652Z,5.50
2019-04-10T21:05:09.563Z,6.10
2019-04-10T21:07:13.257Z,5.80
2019-04-10T21:09:19.129Z,6.03
2019-04-10T21:11:24.762Z,5.53
2019-04-10T21:13:29.956Z,5.50
2019-04-10T21:15:35.630Z,5.83
2019-04-10T21:17:40.725Z,5.63
2019-04-10T21:19:45.943Z,5.97
2019-04-10T21:21:51.192Z,5.60
2019-04-10T21:23:56.539Z,6.13
2019-04-10T21:26:01.777Z,6.10
2019-04-10T21:28:06.957Z,5.70
2019-04-10T21:30:26.662Z,5.97
2019-04-10T21:32:48.170Z,5.80
2019-04-10T21:34:53.569Z,6.07
2019-04-10T21:36:59.754Z,6.27
2019-04-10T21:39:07.424Z,5.97
2019-04-10T21:41:13.834Z,5.73
2019-04-10T21:43:20.302Z,6.17
2019-04-10T21:45:26.540Z,6.27
2019-04-10T21:47:31.674Z,5.93
2019-04-10T21:49:38.023Z,6.00
2019-04-10T21:51:43.325Z,6.40
2019-04-10T21:53:49.347Z,5.83
2019-04-10T21:55:55.737Z,6.07
2019-04-10T21:58:01.058Z,6.13
2019-04-10T22:00:07.941Z,6.40
2019-04-10T22:02:13.362Z,5.53
2019-04-10T22:04:18.989Z,6.50
2019-04-10T22:06:43.161Z,5.43
2019-04-10T22:09:06.134Z,6.17
2019-04-10T22:11:12.828Z,6.27
2019-04-10T22:13:18.425Z,5.90
2019-04-10T22:15:35.068Z,6.50
2019-04-10T22:17:40.532Z,5.80
2019-04-10T22:19:45.947Z,6.17
2019-04-10T22:21:50.843Z,6.07
2019-04-10T22:23:56.679Z,6.00
2019-04-10T22:26:02.176Z,6.40
2019-04-10T22:28:08.120Z,6.60
2019-04-10T22:30:14.873Z,6.07
2019-04-10T22:32:20.003Z,6.40
2019-04-10T22:34:25.569Z,6.80
2019-04-10T22:36:31.131Z,6.23
2019-04-10T22:38:36.139Z,6.33
2019-04-10T22:40:42.025Z,5.50
2019-04-10T22:42:48.623Z,5.73
2019-04-10T22:44:53.881Z,6.23
2019-04-10T22:46:59.140Z,5.67
2019-04-10T22:49:04.480Z,5.97
2019-04-10T22:51:10.024Z,6.10
2019-04-10T22:53:17.272Z,5.83
2019-04-10T22:55:23.840Z,6.23
2019-04-10T22:57:29.316Z,5.70
2019-04-10T22:59:34.868Z,5.90
2019-04-10T23:01:40.181Z,6.30
2019-04-10T23:03:46.086Z,5.50
2019-04-10T23:05:53.107Z,6.10
2019-04-10T23:07:59.099Z,6.10
2019-04-10T23:10:04.518Z,6.00
2019-04-10T23:12:09.911Z,5.97
2019-04-10T23:14:14.858Z,6.53
2019-04-10T23:16:19.974Z,5.90
2019-04-10T23:18:25.564Z,6.23
2019-04-10T23:20:30.513Z,5.93
2019-04-10T23:22:35.592Z,6.23
2019-04-10T23:24:40.420Z,6.00
2019-04-10T23:26:45.660Z,6.27
2019-04-10T23:28:51.739Z,6.60
2019-04-10T23:30:57.254Z,5.93
2019-04-10T23:33:03.805Z,6.13
2019-04-10T23:35:10.143Z,5.80
2019-04-10T23:37:15.159Z,6.50
2019-04-10T23:39:20.529Z,5.67
2019-04-10T23:41:25.530Z,6.60
2019-04-10T23:43:31.470Z,6.27
2019-04-10T23:45:37.823Z,6.00
2019-04-10T23:47:44.358Z,6.00
2019-04-10T23:49:50.002Z,6.00
2019-04-10T23:51:55.720Z,6.07
2019-04-10T23:54:00.717Z,6.07
2019-04-10T23:56:06.270Z,6.37
2019-04-10T23:58:12.190Z,5.23
